Time;durP1;ratioP1;P1;durP2;ratioP2;P2;SDS_P1;SDS_P2;PMS_P1;PMS_P2;Temp;Humidity;BMP_temperature;BMP_pressure;BME280_temperature;BME280_humidity;BME280_pressure;Samples;Min_cycle;Max_cycle;Signal;HPM_P1;HPM_P2
2023/12/04 00:00:40;;;;;;;35.47;20.67;;;0.40;91.80;;;;;;5112017;27;20479;-74
2023/12/04 00:03:06;;;;;;;38.13;21.55;;;0.40;92.30;;;;;;5112866;27;20518;-74
2023/12/04 00:05:31;;;;;;;36.72;21.27;;;0.40;92.30;;;;;;5112443;27;20428;-74
2023/12/04 00:07:57;;;;;;;35.17;21.90;;;0.40;92.50;;;;;;5113260;27;20418;-74
2023/12/04 00:10:22;;;;;;;33.93;20.23;;;0.40;92.40;;;;;;5111662;27;20421;-74
2023/12/04 00:12:48;;;;;;;38.35;21.10;;;0.40;92.60;;;;;;5112405;27;20497;-74
2023/12/04 00:15:14;;;;;;;39.42;20.95;;;0.40;92.60;;;;;;5112142;27;20406;-74
2023/12/04 00:17:40;;;;;;;38.07;21.33;;;0.40;92.90;;;;;;5112874;27;20407;-74
2023/12/04 00:20:07;;;;;;;37.13;20.90;;;0.40;92.80;;;;;;5110726;27;20419;-74
2023/12/04 00:22:32;;;;;;;35.65;20.45;;;0.40;93.00;;;;;;5112585;27;20422;-74
2023/12/04 00:24:58;;;;;;;34.30;21.05;;;0.40;93.00;;;;;;5128379;27;20457;-74
2023/12/04 00:27:26;;;;;;;35.25;20.63;;;0.40;93.10;;;;;;5130702;27;20421;-74
2023/12/04 00:29:53;;;;;;;35.67;20.27;;;0.40;93.30;;;;;;5112809;27;20414;-74
2023/12/04 00:32:18;;;;;;;35.30;20.63;;;0.40;93.40;;;;;;5110332;27;20425;-74
2023/12/04 00:34:44;;;;;;;35.00;20.33;;;0.40;93.60;;;;;;5111389;27;20428;-74
2023/12/04 00:37:09;;;;;;;36.80;21.05;;;0.40;93.90;;;;;;5111671;27;20430;-74
2023/12/04 00:39:35;;;;;;;34.47;20.00;;;0.40;93.90;;;;;;5113034;27;20768;-74
2023/12/04 00:42:01;;;;;;;35.37;21.27;;;0.40;93.60;;;;;;5110893;27;20419;-74
2023/12/04 00:44:26;;;;;;;35.88;20.38;;;0.40;93.80;;;;;;5111329;27;20419;-74
2023/12/04 00:46:52;;;;;;;34.15;20.25;;;0.40;93.80;;;;;;5109627;27;20411;-74
2023/12/04 00:49:17;;;;;;;32.87;20.30;;;0.40;93.70;;;;;;5112542;27;20898;-74
2023/12/04 00:51:43;;;;;;;36.08;21.35;;;0.40;94.00;;;;;;5111294;27;20418;-74
2023/12/04 00:54:09;;;;;;;34.78;20.77;;;0.40;93.80;;;;;;5111860;27;20422;-74
2023/12/04 00:56:34;;;;;;;35.57;21.40;;;0.40;93.90;;;;;;5111700;27;20421;-74
2023/12/04 00:59:00;;;;;;;35.60;21.07;;;0.40;93.90;;;;;;5090419;27;21020;-74
2023/12/04 01:01:26;;;;;;;36.00;20.27;;;0.40;93.90;;;;;;5111479;27;20438;-74
2023/12/04 01:03:51;;;;;;;34.40;20.02;;;0.40;94.00;;;;;;5111081;27;20418;-74
2023/12/04 01:06:22;;;;;;;35.47;20.33;;;0.40;94.00;;;;;;5111852;27;20402;-74
2023/12/04 01:08:48;;;;;;;31.80;19.65;;;0.40;94.20;;;;;;5111512;27;20411;-74
2023/12/04 01:11:15;;;;;;;34.28;20.73;;;0.40;93.80;;;;;;5094964;27;20938;-74
2023/12/04 01:13:41;;;;;;;32.83;20.63;;;0.40;94.00;;;;;;5094258;27;20505;-74
2023/12/04 01:16:08;;;;;;;34.97;21.23;;;0.40;94.10;;;;;;5111823;27;20424;-74
2023/12/04 01:18:33;;;;;;;36.28;21.38;;;0.40;94.30;;;;;;5093354;27;20414;-74
2023/12/04 01:20:59;;;;;;;36.03;21.10;;;0.40;94.30;;;;;;5110835;27;20821;-74
2023/12/04 01:23:25;;;;;;;35.80;21.17;;;0.40;94.60;;;;;;5110888;27;20432;-74
2023/12/04 01:25:50;;;;;;;38.43;22.00;;;0.40;94.70;;;;;;5110878;27;20458;-74
2023/12/04 01:28:16;;;;;;;38.77;21.73;;;0.40;94.60;;;;;;5128387;27;20776;-74
2023/12/04 01:30:41;;;;;;;37.53;21.17;;;0.40;94.70;;;;;;5112037;27;20779;-74
2023/12/04 01:33:08;;;;;;;38.90;21.27;;;0.40;94.80;;;;;;5110528;27;20426;-74
2023/12/04 01:35:34;;;;;;;38.33;21.25;;;0.40;95.10;;;;;;5111573;27;20494;-74
2023/12/04 01:37:59;;;;;;;39.65;22.40;;;0.30;95.20;;;;;;5127277;27;20555;-74
2023/12/04 01:40:26;;;;;;;40.60;22.58;;;0.30;95.20;;;;;;5130082;27;20405;-74
2023/12/04 01:42:52;;;;;;;38.78;22.90;;;0.30;95.20;;;;;;5109773;28;20435;-74
2023/12/04 01:45:19;;;;;;;37.75;21.58;;;0.30;95.40;;;;;;5109505;27;20434;-74
2023/12/04 01:47:45;;;;;;;42.47;22.67;;;0.30;95.40;;;;;;5128459;27;20483;-74
2023/12/04 01:50:12;;;;;;;40.50;22.40;;;0.30;95.40;;;;;;5129187;27;20394;-74
2023/12/04 01:52:39;;;;;;;39.72;22.50;;;0.30;95.30;;;;;;5127512;27;20882;-74
2023/12/04 01:55:07;;;;;;;39.92;22.35;;;0.30;95.50;;;;;;5123096;27;20402;-74
2023/12/04 01:57:33;;;;;;;41.95;22.83;;;0.30;95.70;;;;;;5111029;27;20402;-73
2023/12/04 01:59:59;;;;;;;40.30;22.70;;;0.30;95.80;;;;;;5092886;27;20411;-74
2023/12/04 02:02:25;;;;;;;41.20;22.63;;;0.30;95.90;;;;;;5111099;27;20402;-74
2023/12/04 02:04:51;;;;;;;41.47;22.92;;;0.30;96.10;;;;;;5092814;27;20446;-74
2023/12/04 02:07:17;;;;;;;42.38;23.35;;;0.30;96.20;;;;;;5128344;27;20472;-74
2023/12/04 02:09:42;;;;;;;40.75;22.05;;;0.30;96.40;;;;;;5109754;27;20828;-74
2023/12/04 02:12:08;;;;;;;43.25;23.83;;;0.30;96.70;;;;;;5110795;27;20414;-74
2023/12/04 02:14:34;;;;;;;40.80;22.77;;;0.30;96.90;;;;;;5083811;27;20444;-74
2023/12/04 02:17:03;;;;;;;42.25;23.25;;;0.20;96.70;;;;;;5126635;27;20491;-74
2023/12/04 02:19:28;;;;;;;41.97;24.13;;;0.20;96.90;;;;;;5110125;27;20509;-75
2023/12/04 02:21:54;;;;;;;40.63;22.93;;;0.30;96.80;;;;;;5128897;27;20482;-75
2023/12/04 02:24:20;;;;;;;43.20;23.63;;;0.30;96.80;;;;;;5126785;27;20439;-74
2023/12/04 02:26:54;;;;;;;40.85;23.42;;;0.30;97.00;;;;;;5128772;27;20784;-74
2023/12/04 02:29:31;;;;;;;43.50;23.52;;;0.30;97.00;;;;;;5108208;27;20991;-74
2023/12/04 02:31:57;;;;;;;43.45;23.77;;;0.30;97.00;;;;;;5102344;28;20409;-74
2023/12/04 02:34:24;;;;;;;42.28;23.15;;;0.30;97.00;;;;;;5128705;27;20406;-74
2023/12/04 02:36:51;;;;;;;43.08;23.75;;;0.30;97.00;;;;;;5110270;27;20402;-74
2023/12/04 02:39:18;;;;;;;42.00;23.13;;;0.30;97.20;;;;;;5109505;27;20406;-75
2023/12/04 02:41:43;;;;;;;43.22;24.35;;;0.30;97.20;;;;;;5109737;28;20939;-75
2023/12/04 02:44:09;;;;;;;43.50;23.27;;;0.30;97.10;;;;;;5108896;27;20438;-74
2023/12/04 02:46:35;;;;;;;47.40;23.90;;;0.30;97.20;;;;;;5106475;28;20510;-74
2023/12/04 02:49:00;;;;;;;42.10;24.05;;;0.30;97.20;;;;;;5109361;27;20428;-74
2023/12/04 02:51:26;;;;;;;41.78;23.98;;;0.30;97.20;;;;;;5129014;27;20398;-74
2023/12/04 02:53:52;;;;;;;44.50;24.55;;;0.30;97.00;;;;;;5127497;27;20429;-74
2023/12/04 02:56:17;;;;;;;44.38;24.70;;;0.30;97.10;;;;;;5109818;28;20409;-74
2023/12/04 02:58:43;;;;;;;46.67;24.70;;;0.30;97.00;;;;;;5108730;28;20422;-75
2023/12/04 03:01:09;;;;;;;45.07;24.37;;;0.30;97.20;;;;;;5110371;28;20579;-74
2023/12/04 03:03:34;;;;;;;47.33;25.30;;;0.30;97.30;;;;;;5108105;28;20545;-74
2023/12/04 03:06:00;;;;;;;46.38;24.65;;;0.30;97.30;;;;;;5128389;28;20521;-74
2023/12/04 03:08:25;;;;;;;45.37;23.57;;;0.30;97.60;;;;;;5127516;27;20418;-75
2023/12/04 03:10:51;;;;;;;45.15;24.42;;;0.30;97.70;;;;;;5128374;28;20459;-75
2023/12/04 03:13:17;;;;;;;47.07;25.50;;;0.30;97.80;;;;;;5107896;28;20422;-75
2023/12/04 03:15:42;;;;;;;45.80;24.33;;;0.30;97.90;;;;;;5110344;28;20490;-74
2023/12/04 03:18:08;;;;;;;47.42;25.55;;;0.30;97.90;;;;;;5128434;27;20409;-75
2023/12/04 03:20:33;;;;;;;48.20;25.13;;;0.30;98.00;;;;;;5109520;28;20422;-74
2023/12/04 03:22:59;;;;;;;48.37;25.03;;;0.30;98.00;;;;;;5126959;28;20471;-75
2023/12/04 03:25:25;;;;;;;48.65;25.55;;;0.30;98.10;;;;;;5106065;28;20426;-74
2023/12/04 03:27:50;;;;;;;48.00;25.48;;;0.30;98.10;;;;;;5127754;27;20410;-74
2023/12/04 03:30:16;;;;;;;52.17;25.90;;;0.30;98.10;;;;;;5109215;28;20429;-75
2023/12/04 03:32:41;;;;;;;46.78;24.67;;;0.30;98.00;;;;;;5110325;28;20930;-74
2023/12/04 03:35:07;;;;;;;51.08;26.15;;;0.30;98.20;;;;;;5126951;27;20822;-75
2023/12/04 03:37:33;;;;;;;48.35;25.65;;;0.30;98.20;;;;;;5127880;27;20398;-74
2023/12/04 03:39:59;;;;;;;47.33;24.83;;;0.30;98.30;;;;;;5108790;28;20938;-75
2023/12/04 03:42:25;;;;;;;48.83;25.05;;;0.30;98.30;;;;;;5128341;28;20900;-75
2023/12/04 03:44:50;;;;;;;47.23;25.40;;;0.30;98.10;;;;;;5124928;27;20434;-75
2023/12/04 03:47:16;;;;;;;43.50;23.80;;;0.30;98.20;;;;;;5128036;28;20431;-75
2023/12/04 03:49:41;;;;;;;45.45;23.95;;;0.30;98.30;;;;;;5123633;27;20418;-75
2023/12/04 03:52:07;;;;;;;42.50;24.03;;;0.30;98.40;;;;;;5106064;27;20411;-74
2023/12/04 03:54:32;;;;;;;42.45;23.77;;;0.30;98.40;;;;;;5108472;28;20407;-75
2023/12/04 03:56:58;;;;;;;45.50;24.38;;;0.30;98.30;;;;;;5109407;27;20780;-74
2023/12/04 03:59:24;;;;;;;42.20;23.90;;;0.40;98.20;;;;;;5126862;27;20457;-74
2023/12/04 04:01:49;;;;;;;45.72;24.80;;;0.40;98.40;;;;;;5108398;28;20504;-74
2023/12/04 04:04:15;;;;;;;44.90;24.53;;;0.40;98.50;;;;;;5128184;27;20411;-75
2023/12/04 04:06:40;;;;;;;44.97;25.03;;;0.40;98.40;;;;;;5127849;27;20467;-74
2023/12/04 04:09:06;;;;;;;41.80;23.65;;;0.40;98.30;;;;;;5113527;27;20434;-75
2023/12/04 04:11:32;;;;;;;43.47;24.52;;;0.40;98.30;;;;;;5130391;27;20453;-75
2023/12/04 04:13:57;;;;;;;45.23;24.37;;;0.40;98.20;;;;;;5113089;27;20402;-75
2023/12/04 04:16:23;;;;;;;45.57;25.57;;;0.40;98.20;;;;;;5130849;27;20449;-75
2023/12/04 04:18:49;;;;;;;45.53;24.60;;;0.40;98.30;;;;;;5112900;27;20480;-75
2023/12/04 04:21:14;;;;;;;45.17;24.63;;;0.40;98.20;;;;;;5111579;27;20414;-75
2023/12/04 04:23:40;;;;;;;49.27;25.63;;;0.40;98.20;;;;;;5109596;27;20547;-75
2023/12/04 04:26:06;;;;;;;45.35;25.17;;;0.40;98.20;;;;;;5112141;27;20434;-74
2023/12/04 04:28:32;;;;;;;46.10;24.27;;;0.40;98.20;;;;;;5112668;27;20803;-74
2023/12/04 04:30:57;;;;;;;44.25;24.27;;;0.40;98.20;;;;;;5108062;27;20445;-74
2023/12/04 04:33:23;;;;;;;46.08;25.00;;;0.40;98.20;;;;;;5130885;27;20758;-74
2023/12/04 04:35:49;;;;;;;46.13;24.50;;;0.40;98.20;;;;;;5112360;27;20459;-75
2023/12/04 04:38:14;;;;;;;45.80;25.00;;;0.50;98.00;;;;;;5112355;27;20804;-74
2023/12/04 04:40:43;;;;;;;44.67;23.73;;;0.50;98.10;;;;;;5109831;27;20807;-75
2023/12/04 04:43:10;;;;;;;47.15;25.40;;;0.50;98.10;;;;;;5111660;27;20418;-74
2023/12/04 04:45:35;;;;;;;49.38;25.52;;;0.50;98.20;;;;;;5107921;27;20426;-75
2023/12/04 04:48:01;;;;;;;48.67;25.00;;;0.50;98.20;;;;;;5130099;27;20783;-75
2023/12/04 04:50:27;;;;;;;50.10;26.10;;;0.50;98.10;;;;;;5112295;27;20463;-74
2023/12/04 04:52:52;;;;;;;50.13;25.48;;;0.50;98.10;;;;;;5111469;27;20791;-74
2023/12/04 04:55:18;;;;;;;48.50;25.05;;;0.50;97.90;;;;;;5129629;27;20451;-75
2023/12/04 04:57:44;;;;;;;45.40;24.80;;;0.50;98.00;;;;;;5128763;27;20411;-75
2023/12/04 05:00:11;;;;;;;48.27;25.40;;;0.50;98.10;;;;;;5110367;27;20410;-74
2023/12/04 05:02:36;;;;;;;47.73;25.07;;;0.50;98.10;;;;;;5104358;27;20425;-75
2023/12/04 05:05:03;;;;;;;49.60;26.30;;;0.50;98.20;;;;;;5111631;27;20462;-75
2023/12/04 05:07:29;;;;;;;48.92;25.52;;;0.50;98.20;;;;;;5094013;27;20491;-75
2023/12/04 05:09:55;;;;;;;51.03;26.05;;;0.50;98.10;;;;;;5110801;27;20426;-74
2023/12/04 05:12:20;;;;;;;45.22;24.75;;;0.50;98.10;;;;;;5109052;27;20450;-75
2023/12/04 05:14:46;;;;;;;49.57;25.23;;;0.50;98.10;;;;;;5110391;27;20419;-75
2023/12/04 05:17:12;;;;;;;50.80;25.27;;;0.50;98.20;;;;;;5111297;27;20839;-75
2023/12/04 05:19:37;;;;;;;52.40;25.42;;;0.50;98.20;;;;;;5110299;27;20508;-75
2023/12/04 05:22:03;;;;;;;48.80;25.63;;;0.50;98.30;;;;;;5110940;27;20837;-75
2023/12/04 05:24:29;;;;;;;49.00;25.67;;;0.50;98.20;;;;;;5110041;27;20422;-75
2023/12/04 05:26:54;;;;;;;47.67;24.90;;;0.50;98.30;;;;;;5111731;27;20477;-74
2023/12/04 05:29:20;;;;;;;44.65;24.75;;;0.50;98.30;;;;;;5110779;27;20472;-74
2023/12/04 05:31:46;;;;;;;49.63;26.13;;;0.50;98.30;;;;;;5111285;27;21006;-75
2023/12/04 05:34:12;;;;;;;49.60;25.92;;;0.50;98.40;;;;;;5110563;27;20450;-74
2023/12/04 05:36:38;;;;;;;45.53;24.08;;;0.50;98.40;;;;;;5111408;27;20437;-74
2023/12/04 05:39:04;;;;;;;46.67;24.38;;;0.50;98.30;;;;;;5110568;27;20410;-74
2023/12/04 05:41:30;;;;;;;46.85;23.90;;;0.50;98.30;;;;;;5110934;27;20410;-75
2023/12/04 05:43:56;;;;;;;45.65;25.52;;;0.50;98.30;;;;;;5107872;27;20472;-75
2023/12/04 05:46:21;;;;;;;43.63;24.33;;;0.50;98.30;;;;;;5094007;27;20431;-75
2023/12/04 05:48:47;;;;;;;46.33;24.20;;;0.50;98.20;;;;;;5110508;27;20501;-75
2023/12/04 05:51:14;;;;;;;43.60;24.45;;;0.50;98.10;;;;;;5109589;27;20473;-75
2023/12/04 05:53:40;;;;;;;44.13;24.40;;;0.50;98.00;;;;;;5111038;27;20412;-74
2023/12/04 05:56:06;;;;;;;45.90;25.00;;;0.50;97.90;;;;;;5110252;27;20418;-74
2023/12/04 05:58:32;;;;;;;43.17;23.33;;;0.50;97.90;;;;;;5110859;27;20927;-74
2023/12/04 06:00:57;;;;;;;45.87;24.67;;;0.40;97.80;;;;;;5110256;27;20423;-74
2023/12/04 06:03:23;;;;;;;42.37;23.63;;;0.40;97.80;;;;;;5109462;27;20414;-75
2023/12/04 06:05:49;;;;;;;45.53;23.95;;;0.40;97.70;;;;;;5093252;27;20458;-74
2023/12/04 06:08:14;;;;;;;44.70;24.60;;;0.40;97.70;;;;;;5110760;27;20383;-74
2023/12/04 06:10:40;;;;;;;44.33;23.87;;;0.40;97.70;;;;;;5109900;27;20752;-74
2023/12/04 06:13:06;;;;;;;43.60;24.70;;;0.40;97.90;;;;;;5110776;27;20925;-74
2023/12/04 06:15:31;;;;;;;43.23;23.70;;;0.40;98.00;;;;;;5109349;27;21548;-74
2023/12/04 06:17:57;;;;;;;42.97;23.98;;;0.40;98.00;;;;;;5092942;27;20419;-74
2023/12/04 06:20:23;;;;;;;43.37;23.17;;;0.40;98.00;;;;;;5110194;27;20410;-74
2023/12/04 06:22:48;;;;;;;42.50;23.70;;;0.40;98.00;;;;;;5110248;27;20491;-75
2023/12/04 06:25:15;;;;;;;42.72;23.20;;;0.50;97.90;;;;;;5109101;27;20521;-74
2023/12/04 06:27:41;;;;;;;42.88;23.00;;;0.40;97.90;;;;;;5097758;27;20829;-74
2023/12/04 06:30:07;;;;;;;40.47;22.95;;;0.50;97.90;;;;;;5110409;27;20486;-74
2023/12/04 06:32:33;;;;;;;42.75;24.35;;;0.50;97.90;;;;;;5109319;27;20424;-74
2023/12/04 06:34:59;;;;;;;41.77;22.80;;;0.50;97.90;;;;;;5090969;27;20974;-74
2023/12/04 06:37:24;;;;;;;41.93;23.30;;;0.50;97.80;;;;;;5109025;27;20419;-74
2023/12/04 06:39:53;;;;;;;40.50;22.77;;;0.50;97.80;;;;;;5093819;27;20863;-74
2023/12/04 06:42:19;;;;;;;41.17;22.90;;;0.50;97.80;;;;;;5107883;27;20971;-74
2023/12/04 06:44:45;;;;;;;40.30;22.50;;;0.50;97.70;;;;;;5110267;28;20430;-74
2023/12/04 06:47:12;;;;;;;42.50;23.85;;;0.60;97.70;;;;;;5109142;27;20501;-74
2023/12/04 06:49:38;;;;;;;42.67;22.65;;;0.60;97.70;;;;;;5110258;28;20399;-75
2023/12/04 06:52:04;;;;;;;41.40;22.60;;;0.60;97.70;;;;;;5107683;27;20418;-71
2023/12/04 06:54:30;;;;;;;38.33;22.07;;;0.60;97.60;;;;;;5106893;28;20429;-71
2023/12/04 06:56:56;;;;;;;38.00;21.70;;;0.60;97.50;;;;;;5128414;28;20402;-72
2023/12/04 06:59:21;;;;;;;35.53;19.90;;;0.60;97.60;;;;;;5105685;27;20493;-73
2023/12/04 07:01:47;;;;;;;37.97;21.83;;;0.60;97.40;;;;;;5108194;28;20914;-73
2023/12/04 07:04:13;;;;;;;34.10;20.88;;;0.60;97.40;;;;;;5093203;28;20449;-73
2023/12/04 07:06:39;;;;;;;35.07;20.47;;;0.60;97.40;;;;;;5127642;28;20411;-74
2023/12/04 07:09:08;;;;;;;34.03;20.00;;;0.70;97.30;;;;;;5108913;28;20424;-74
2023/12/04 07:11:34;;;;;;;35.88;21.02;;;0.70;97.20;;;;;;5107634;28;20426;-74
2023/12/04 07:13:59;;;;;;;32.42;20.05;;;0.70;97.10;;;;;;5109773;27;20399;-74
2023/12/04 07:16:25;;;;;;;36.87;21.20;;;0.70;97.10;;;;;;5107179;28;20430;-74
2023/12/04 07:18:51;;;;;;;34.08;19.88;;;0.70;97.00;;;;;;5109073;28;20427;-74
2023/12/04 07:21:16;;;;;;;35.22;20.73;;;0.70;96.90;;;;;;5108679;28;20430;-74
2023/12/04 07:23:42;;;;;;;33.23;20.70;;;0.70;96.80;;;;;;5127792;28;20433;-74
2023/12/04 07:26:08;;;;;;;32.73;20.30;;;0.70;96.70;;;;;;5127193;27;20426;-74
2023/12/04 07:28:34;;;;;;;33.45;20.83;;;0.70;96.60;;;;;;5106364;28;20459;-74
2023/12/04 07:31:01;;;;;;;34.33;20.40;;;0.70;96.60;;;;;;5104878;28;20457;-74
2023/12/04 07:33:27;;;;;;;32.70;20.27;;;0.60;96.50;;;;;;5106829;28;20553;-74
2023/12/04 07:35:53;;;;;;;36.28;21.00;;;0.70;96.40;;;;;;5108810;28;20509;-74
2023/12/04 07:38:18;;;;;;;32.07;19.90;;;0.60;96.30;;;;;;5108142;28;20431;-74
2023/12/04 07:40:45;;;;;;;32.37;20.00;;;0.60;96.30;;;;;;5106789;28;20426;-74
2023/12/04 07:43:11;;;;;;;32.35;19.75;;;0.60;96.30;;;;;;5096505;27;20410;-74
2023/12/04 07:45:37;;;;;;;31.85;18.83;;;0.60;96.20;;;;;;5113680;27;20430;-74
2023/12/04 07:48:06;;;;;;;31.48;19.25;;;0.60;96.20;;;;;;5113453;27;20409;-74
2023/12/04 07:50:32;;;;;;;31.77;19.63;;;0.60;96.10;;;;;;5111249;27;20482;-74
2023/12/04 07:52:57;;;;;;;29.55;19.30;;;0.60;96.10;;;;;;5112063;27;20987;-74
2023/12/04 07:55:23;;;;;;;30.57;18.93;;;0.60;96.10;;;;;;5128169;27;20438;-74
2023/12/04 07:57:50;;;;;;;29.10;18.63;;;0.60;96.00;;;;;;5113698;27;20406;-74
2023/12/04 08:00:17;;;;;;;30.50;18.70;;;0.60;96.00;;;;;;5110971;27;20427;-74
2023/12/04 08:02:44;;;;;;;29.83;19.00;;;0.60;95.90;;;;;;5112290;27;20419;-74
2023/12/04 08:05:10;;;;;;;29.00;18.40;;;0.60;95.80;;;;;;5113294;27;20927;-72
2023/12/04 08:07:36;;;;;;;27.43;16.77;;;0.60;95.90;;;;;;5113491;27;20407;-72
2023/12/04 08:10:02;;;;;;;27.20;17.67;;;0.70;95.90;;;;;;5130681;27;20418;-72
2023/12/04 08:12:27;;;;;;;27.17;17.35;;;0.70;95.90;;;;;;5111793;27;20442;-72
2023/12/04 08:14:53;;;;;;;26.92;17.63;;;0.70;95.70;;;;;;5111901;27;20445;-72
2023/12/04 08:17:18;;;;;;;26.07;17.27;;;0.70;95.70;;;;;;5112229;27;20422;-72
2023/12/04 08:19:44;;;;;;;24.23;16.10;;;0.80;95.30;;;;;;5130245;27;20500;-72
2023/12/04 08:22:10;;;;;;;24.77;16.35;;;0.80;95.20;;;;;;5095940;27;20446;-72
2023/12/04 08:24:35;;;;;;;25.00;16.02;;;0.80;95.00;;;;;;5129856;27;20429;-72
2023/12/04 08:27:01;;;;;;;22.97;14.93;;;0.90;94.90;;;;;;5111838;27;20835;-72
2023/12/04 08:29:27;;;;;;;24.27;15.38;;;0.90;94.70;;;;;;5129228;27;20411;-72
2023/12/04 08:31:52;;;;;;;22.20;15.20;;;0.90;94.40;;;;;;5113956;27;20399;-72
2023/12/04 08:34:18;;;;;;;23.47;15.10;;;0.90;94.00;;;;;;5094601;27;20414;-72
2023/12/04 08:36:43;;;;;;;21.95;14.50;;;1.00;94.00;;;;;;5130974;27;20406;-73
2023/12/04 08:39:09;;;;;;;22.50;14.75;;;1.00;93.90;;;;;;5110627;27;20423;-72
2023/12/04 08:41:35;;;;;;;22.30;14.13;;;1.00;93.40;;;;;;5111741;27;20442;-72
2023/12/04 08:44:00;;;;;;;21.77;14.80;;;1.00;93.30;;;;;;5112101;27;20499;-72
2023/12/04 08:46:26;;;;;;;19.70;13.73;;;1.10;93.20;;;;;;5129207;27;20513;-72
2023/12/04 08:48:51;;;;;;;20.43;13.37;;;1.10;92.90;;;;;;5112331;27;20901;-72
2023/12/04 08:51:18;;;;;;;20.13;13.57;;;1.10;91.80;;;;;;5112074;27;20403;-72
2023/12/04 08:53:44;;;;;;;19.80;13.45;;;1.20;92.00;;;;;;5129362;27;20419;-72
2023/12/04 08:56:10;;;;;;;19.73;13.27;;;1.20;91.30;;;;;;5130611;27;20485;-72
2023/12/04 08:58:36;;;;;;;18.35;12.68;;;1.20;90.60;;;;;;5129125;27;20662;-72
2023/12/04 09:01:02;;;;;;;18.55;12.60;;;1.20;90.20;;;;;;5110719;27;20998;-72
2023/12/04 09:03:27;;;;;;;20.23;12.77;;;1.30;90.10;;;;;;5130252;27;20414;-72
2023/12/04 09:05:55;;;;;;;18.30;12.13;;;1.20;88.70;;;;;;5111244;27;20795;-72
2023/12/04 09:08:22;;;;;;;19.30;12.37;;;1.30;87.70;;;;;;5126964;27;20418;-72
2023/12/04 09:10:48;;;;;;;18.45;12.55;;;1.30;87.90;;;;;;5128031;27;21319;-74
2023/12/04 09:13:14;;;;;;;16.70;11.57;;;1.30;87.40;;;;;;5126514;27;20422;-73
2023/12/04 09:15:40;;;;;;;18.55;12.38;;;1.30;82.80;;;;;;5127101;27;20488;-72
2023/12/04 09:18:06;;;;;;;16.33;11.37;;;1.40;83.80;;;;;;5127860;27;20915;-72
2023/12/04 09:20:32;;;;;;;17.03;11.60;;;1.40;83.70;;;;;;5130532;27;20409;-73
2023/12/04 09:22:57;;;;;;;17.23;11.63;;;1.40;84.00;;;;;;5130177;27;20409;-72
2023/12/04 09:25:23;;;;;;;17.00;11.32;;;1.40;82.30;;;;;;5111649;27;20915;-73
2023/12/04 09:27:49;;;;;;;16.43;11.40;;;1.40;81.70;;;;;;5126849;27;20407;-73
2023/12/04 09:30:14;;;;;;;16.07;10.57;;;1.40;81.60;;;;;;5110320;27;20411;-72
2023/12/04 09:32:40;;;;;;;16.17;11.40;;;1.50;80.80;;;;;;5110144;27;20768;-73
2023/12/04 09:35:07;;;;;;;16.45;11.40;;;1.40;80.90;;;;;;5128267;27;20446;-72
2023/12/04 09:37:32;;;;;;;17.03;11.20;;;1.40;80.30;;;;;;5128451;27;20418;-72
2023/12/04 09:39:58;;;;;;;17.50;11.73;;;1.50;77.30;;;;;;5129620;27;20818;-72
2023/12/04 09:42:24;;;;;;;18.17;11.90;;;1.50;75.50;;;;;;5110245;27;20419;-72
2023/12/04 09:44:52;;;;;;;18.45;12.00;;;1.50;76.20;;;;;;5111046;27;20505;-72
2023/12/04 09:47:18;;;;;;;18.65;11.93;;;1.50;75.70;;;;;;5128407;27;20453;-73
2023/12/04 09:49:45;;;;;;;17.30;11.98;;;1.50;76.40;;;;;;5107231;27;20460;-73
2023/12/04 09:52:11;;;;;;;16.38;12.00;;;1.50;76.20;;;;;;5110584;27;20426;-73
2023/12/04 09:54:38;;;;;;;19.02;12.70;;;1.50;75.00;;;;;;5129404;27;20422;-72
2023/12/04 09:57:05;;;;;;;17.80;12.18;;;1.50;75.50;;;;;;5128671;27;20409;-73
2023/12/04 09:59:31;;;;;;;17.20;11.70;;;1.50;75.70;;;;;;5109158;27;20848;-72
2023/12/04 10:01:57;;;;;;;17.65;12.13;;;1.60;73.80;;;;;;5111172;27;20407;-72
2023/12/04 10:04:24;;;;;;;16.92;11.13;;;1.60;75.50;;;;;;5110352;27;20410;-73
2023/12/04 10:06:52;;;;;;;18.58;12.43;;;1.60;74.90;;;;;;5109215;27;20498;-73
2023/12/04 10:09:19;;;;;;;18.13;11.68;;;1.60;73.20;;;;;;5108785;27;20418;-73
2023/12/04 10:11:45;;;;;;;19.48;13.27;;;1.70;71.90;;;;;;5127162;27;20411;-73
2023/12/04 10:14:21;;;;;;;17.33;12.15;;;1.70;74.50;;;;;;5110456;27;20941;-70
2023/12/04 10:16:47;;;;;;;17.35;12.05;;;1.70;73.40;;;;;;5129258;27;20410;-71
2023/12/04 10:19:28;;;;;;;16.88;11.73;;;1.70;73.80;;;;;;5109595;27;20517;-71
2023/12/04 10:21:58;;;;;;;16.70;11.32;;;1.80;71.90;;;;;;5125270;27;20422;-71
2023/12/04 10:24:32;;;;;;;15.93;10.97;;;1.80;72.10;;;;;;5092154;27;20510;-72
2023/12/04 10:26:58;;;;;;;16.77;11.13;;;1.80;72.00;;;;;;5124519;27;20422;-72
2023/12/04 10:29:25;;;;;;;17.20;11.68;;;1.90;69.90;;;;;;5107923;27;20432;-72
2023/12/04 10:31:52;;;;;;;16.10;11.02;;;1.90;69.40;;;;;;5110420;27;20463;-72
2023/12/04 10:34:18;;;;;;;15.60;11.17;;;2.00;71.00;;;;;;5127532;27;20620;-72
2023/12/04 10:36:46;;;;;;;17.17;11.00;;;2.00;70.60;;;;;;5091227;27;20433;-72
2023/12/04 10:39:13;;;;;;;15.80;10.60;;;2.10;70.50;;;;;;5109545;27;20459;-72
2023/12/04 10:41:38;;;;;;;15.20;10.60;;;2.10;68.90;;;;;;5127668;27;20450;-72
2023/12/04 10:44:04;;;;;;;15.52;10.68;;;2.20;66.00;;;;;;5128743;27;21177;-72
2023/12/04 10:46:31;;;;;;;15.70;10.73;;;2.20;66.80;;;;;;5109975;27;20441;-72
2023/12/04 10:48:58;;;;;;;16.05;10.80;;;2.20;61.40;;;;;;5105927;27;20418;-72
2023/12/04 10:51:25;;;;;;;15.75;11.57;;;2.20;60.10;;;;;;5127584;27;20410;-72
2023/12/04 10:53:51;;;;;;;17.83;11.30;;;2.30;60.90;;;;;;5109528;28;20422;-72
2023/12/04 10:56:28;;;;;;;14.82;10.68;;;2.30;60.80;;;;;;5128595;27;20399;-72
2023/12/04 10:58:57;;;;;;;14.70;10.52;;;2.40;61.70;;;;;;5128172;28;20394;-72
2023/12/04 11:01:24;;;;;;;13.75;10.07;;;2.40;57.50;;;;;;5109209;28;20437;-72
2023/12/04 11:03:54;;;;;;;15.40;9.60;;;2.40;53.10;;;;;;5126945;27;20532;-72
2023/12/04 11:06:23;;;;;;;15.33;10.37;;;2.40;55.50;;;;;;5128009;27;20843;-72
2023/12/04 11:08:52;;;;;;;16.00;10.13;;;2.40;52.10;;;;;;5109264;28;20427;-72
2023/12/04 11:11:26;;;;;;;14.40;10.27;;;2.40;55.00;;;;;;5127459;27;20448;-72
2023/12/04 11:13:56;;;;;;;14.23;10.40;;;2.40;49.80;;;;;;5127127;27;20519;-72
2023/12/04 11:16:48;;;;;;;14.93;10.52;;;2.50;52.60;;;;;;5113052;27;20406;-72
2023/12/04 11:19:49;;;;;;;13.48;10.07;;;2.50;48.30;;;;;;5114588;27;20415;-72
2023/12/04 11:22:19;;;;;;;13.93;10.43;;;2.50;47.10;;;;;;5104033;27;20418;-72
2023/12/04 11:24:47;;;;;;;14.07;10.50;;;2.50;48.20;;;;;;5132385;27;20781;-72
2023/12/04 11:27:14;;;;;;;14.50;10.45;;;2.60;47.40;;;;;;5113375;27;20431;-72
2023/12/04 11:29:40;;;;;;;14.97;10.47;;;2.60;48.60;;;;;;5113253;27;20399;-72
2023/12/04 11:32:07;;;;;;;14.83;10.63;;;2.60;50.40;;;;;;5113655;27;20402;-72
2023/12/04 11:34:34;;;;;;;14.25;10.18;;;2.70;52.40;;;;;;5112802;27;20537;-72
2023/12/04 11:37:02;;;;;;;14.27;10.68;;;2.70;50.90;;;;;;5113719;27;20440;-72
2023/12/04 11:39:28;;;;;;;14.43;10.55;;;2.80;51.20;;;;;;5112923;27;20422;-72
2023/12/04 11:41:54;;;;;;;14.15;10.20;;;2.80;41.70;;;;;;5112312;27;20411;-72
2023/12/04 11:44:20;;;;;;;14.07;9.93;;;2.80;44.70;;;;;;5112928;27;20849;-73
2023/12/04 11:47:04;;;;;;;13.95;10.23;;;2.80;50.80;;;;;;5108409;27;20461;-72
2023/12/04 11:49:31;;;;;;;15.13;10.57;;;2.90;46.80;;;;;;5099891;28;21221;-73
2023/12/04 11:51:58;;;;;;;14.40;10.55;;;2.90;45.10;;;;;;5098785;27;20398;-73
2023/12/04 11:54:26;;;;;;;14.40;10.07;;;2.90;46.90;;;;;;5106977;28;20910;-73
2023/12/04 11:57:21;;;;;;;15.93;10.30;;;2.90;45.60;;;;;;5112853;27;20454;-73
2023/12/04 11:59:47;;;;;;;14.75;10.95;;;2.90;44.70;;;;;;5126142;27;20944;-73
2023/12/04 12:02:13;;;;;;;15.40;10.60;;;2.80;42.60;;;;;;5130738;27;20514;-73
2023/12/04 12:04:39;;;;;;;15.33;10.87;;;2.80;43.20;;;;;;5111316;27;20414;-73
2023/12/04 12:07:08;;;;;;;15.03;10.60;;;2.90;46.30;;;;;;5129685;27;20781;-73
2023/12/04 12:09:34;;;;;;;13.90;10.15;;;2.90;41.90;;;;;;5130632;27;20422;-74
2023/12/04 12:12:04;;;;;;;15.95;10.85;;;2.80;41.10;;;;;;5104773;27;20430;-74
2023/12/04 12:14:30;;;;;;;14.35;10.82;;;2.80;44.30;;;;;;5112666;27;20406;-73
2023/12/04 12:16:58;;;;;;;14.30;10.30;;;2.80;37.70;;;;;;5109593;27;20414;-74
2023/12/04 12:19:24;;;;;;;15.07;11.18;;;2.80;40.50;;;;;;5107802;27;20418;-74
2023/12/04 12:21:51;;;;;;;14.45;10.50;;;2.80;38.70;;;;;;5123011;27;20395;-73
2023/12/04 12:24:18;;;;;;;15.05;10.55;;;2.80;41.10;;;;;;5113235;27;20841;-73
2023/12/04 12:26:44;;;;;;;15.07;10.77;;;2.70;38.20;;;;;;5130478;27;20434;-73
2023/12/04 12:29:10;;;;;;;14.35;10.10;;;2.70;40.00;;;;;;5111774;27;20453;-74
2023/12/04 12:31:35;;;;;;;13.93;10.15;;;2.70;39.70;;;;;;5130647;27;20440;-73